createdAt,value
2023-01-13T00:01:14.823Z,9.10
2023-01-13T00:03:47.795Z,9.10
2023-01-13T00:06:21.384Z,9.10
2023-01-13T00:08:49.959Z,9.10
2023-01-13T00:11:17.509Z,9.20
2023-01-13T00:13:44.167Z,9.20
2023-01-13T00:16:15.295Z,9.20
2023-01-13T00:18:42.856Z,9.20
2023-01-13T00:21:19.138Z,9.20
2023-01-13T00:23:46.325Z,9.20
2023-01-13T00:26:17.813Z,9.20
2023-01-13T00:28:44.606Z,9.20
2023-01-13T00:31:16.314Z,9.20
2023-01-13T00:33:43.252Z,9.20
2023-01-13T00:36:14.489Z,9.20
2023-01-13T00:38:42.918Z,9.20
2023-01-13T00:41:19.397Z,9.20
2023-01-13T00:43:46.687Z,9.20
2023-01-13T00:46:17.597Z,9.20
2023-01-13T00:48:44.934Z,9.20
2023-01-13T00:51:16.859Z,9.30
2023-01-13T00:53:50.846Z,9.20
2023-01-13T00:56:39.849Z,9.30
2023-01-13T00:59:13.366Z,9.30
2023-01-13T01:01:41.516Z,9.30
2023-01-13T01:04:08.420Z,9.30
2023-01-13T01:06:35.263Z,9.30
2023-01-13T01:09:02.040Z,9.30
2023-01-13T01:11:31.373Z,9.40
2023-01-13T01:14:02.112Z,9.40
2023-01-13T01:16:32.560Z,9.30
2023-01-13T01:19:00.829Z,9.30
2023-01-13T01:21:28.829Z,9.40
2023-01-13T01:23:55.874Z,9.40
2023-01-13T01:26:25.841Z,9.30
2023-01-13T01:28:53.249Z,9.40
2023-01-13T01:31:24.417Z,9.40
2023-01-13T01:33:51.829Z,9.50
2023-01-13T01:36:20.741Z,9.40
2023-01-13T01:38:49.421Z,9.40
2023-01-13T01:41:23.194Z,9.50
2023-01-13T01:43:59.902Z,9.40
2023-01-13T01:46:42.391Z,9.40
2023-01-13T01:49:26.123Z,9.40
2023-01-13T01:52:02.512Z,9.40
2023-01-13T01:54:50.821Z,9.50
2023-01-13T01:57:23.653Z,9.40
2023-01-13T01:59:50.691Z,9.40
2023-01-13T02:02:17.941Z,9.30
2023-01-13T02:04:51.558Z,9.30
2023-01-13T02:07:29.586Z,9.30
2023-01-13T02:10:04.608Z,9.30
2023-01-13T02:12:33.817Z,9.30
2023-01-13T02:15:13.642Z,9.30
2023-01-13T02:18:26.643Z,9.30
2023-01-13T02:21:31.658Z,9.30
2023-01-13T02:24:54.868Z,9.40
2023-01-13T02:28:05.145Z,9.40
2023-01-13T02:31:06.807Z,9.40
2023-01-13T02:34:44.889Z,9.40
2023-01-13T02:37:28.527Z,9.40
2023-01-13T02:40:00.267Z,9.40
2023-01-13T02:42:57.979Z,9.40
2023-01-13T02:45:46.162Z,9.40
2023-01-13T02:48:15.142Z,9.40
2023-01-13T02:50:51.874Z,9.40
2023-01-13T02:53:34.238Z,9.40
2023-01-13T02:56:03.582Z,9.30
2023-01-13T02:58:32.506Z,9.30
2023-01-13T03:00:59.177Z,9.30
2023-01-13T03:03:28.329Z,9.30
2023-01-13T03:06:25.832Z,9.40
2023-01-13T03:08:55.202Z,9.30
2023-01-13T03:11:22.125Z,9.40
2023-01-13T03:14:15.081Z,9.40
2023-01-13T03:17:29.892Z,9.40
2023-01-13T03:20:22.278Z,9.40
2023-01-13T03:23:08.610Z,9.40
2023-01-13T03:25:56.464Z,9.50
2023-01-13T03:28:33.819Z,9.50
2023-01-13T03:31:10.862Z,9.50
2023-01-13T03:33:46.371Z,9.50
2023-01-13T03:36:16.640Z,9.40
2023-01-13T03:38:50.215Z,9.40
2023-01-13T03:41:27.847Z,9.40
2023-01-13T03:44:23.797Z,9.40
2023-01-13T03:47:06.549Z,9.40
2023-01-13T03:49:48.351Z,9.40
2023-01-13T03:52:25.035Z,9.40
2023-01-13T03:54:58.802Z,9.40
2023-01-13T03:57:31.481Z,9.40
2023-01-13T04:00:02.083Z,9.30
2023-01-13T04:02:47.726Z,9.40
2023-01-13T04:05:15.097Z,9.40
2023-01-13T04:08:02.807Z,9.40
2023-01-13T04:10:42.606Z,9.40
2023-01-13T04:13:15.618Z,9.30
2023-01-13T04:15:46.800Z,9.30
2023-01-13T04:18:21.183Z,9.30
2023-01-13T04:20:50.665Z,9.30
2023-01-13T04:23:18.725Z,9.30
2023-01-13T04:25:46.965Z,9.20
2023-01-13T04:28:14.355Z,9.20
2023-01-13T04:30:42.390Z,9.20
2023-01-13T04:33:09.943Z,9.10
2023-01-13T04:35:37.466Z,9.20
2023-01-13T04:38:12.100Z,9.10
2023-01-13T04:40:39.857Z,9.10
2023-01-13T04:43:06.951Z,9.10
2023-01-13T04:45:34.237Z,9.10
2023-01-13T04:48:01.194Z,9.10
2023-01-13T04:50:27.936Z,9.00
2023-01-13T04:52:55.029Z,9.00
2023-01-13T04:55:25.297Z,9.00
2023-01-13T04:57:52.579Z,9.00
2023-01-13T05:00:22.171Z,8.90
2023-01-13T05:02:52.195Z,8.90
2023-01-13T05:05:19.375Z,8.80
2023-01-13T05:07:45.995Z,8.70
2023-01-13T05:10:13.136Z,8.60
2023-01-13T05:12:59.373Z,8.60
2023-01-13T05:15:44.799Z,8.60
2023-01-13T05:18:12.324Z,8.50
2023-01-13T05:20:38.925Z,8.50
2023-01-13T05:23:23.950Z,8.40
2023-01-13T05:25:50.602Z,8.40
2023-01-13T05:28:17.335Z,8.30
2023-01-13T05:30:49.338Z,8.20
2023-01-13T05:33:20.872Z,8.20
2023-01-13T05:35:48.092Z,8.10
2023-01-13T05:38:15.339Z,8.10
2023-01-13T05:41:01.189Z,8.10
2023-01-13T05:43:28.436Z,8.10
2023-01-13T05:46:04.650Z,8.00
2023-01-13T05:48:40.803Z,7.90
2023-01-13T05:51:11.009Z,7.90
2023-01-13T05:53:37.748Z,7.90
2023-01-13T05:56:07.142Z,7.90
2023-01-13T05:58:34.430Z,7.90
2023-01-13T06:01:08.781Z,7.80
2023-01-13T06:03:37.143Z,7.80
2023-01-13T06:06:04.560Z,7.80
2023-01-13T06:08:31.958Z,7.80
2023-01-13T06:10:58.682Z,7.80
2023-01-13T06:13:25.788Z,7.70
2023-01-13T06:15:58.963Z,7.80
2023-01-13T06:18:26.444Z,7.70
2023-01-13T06:20:53.182Z,7.70
2023-01-13T06:23:19.886Z,7.60
2023-01-13T06:26:17.534Z,7.60
2023-01-13T06:28:44.115Z,7.60
2023-01-13T06:31:11.447Z,7.50
2023-01-13T06:34:02.333Z,7.50
2023-01-13T06:36:42.263Z,7.50
2023-01-13T06:39:10.781Z,7.50
2023-01-13T06:41:59.018Z,7.50
2023-01-13T06:44:25.665Z,7.50
2023-01-13T06:46:52.514Z,7.50
2023-01-13T06:49:21.461Z,7.60
2023-01-13T06:51:50.540Z,7.70
2023-01-13T06:54:18.805Z,7.60
2023-01-13T06:56:45.365Z,7.50
2023-01-13T06:59:11.953Z,7.50
2023-01-13T07:01:38.683Z,7.50
2023-01-13T07:04:13.592Z,7.40
2023-01-13T07:06:40.219Z,7.50
2023-01-13T07:09:07.019Z,7.50
2023-01-13T07:11:33.670Z,7.40
2023-01-13T07:14:20.010Z,7.40
2023-01-13T07:16:46.779Z,7.40
2023-01-13T07:19:13.542Z,7.40
2023-01-13T07:21:40.110Z,7.30
2023-01-13T07:24:06.934Z,7.30
2023-01-13T07:26:33.546Z,7.40
2023-01-13T07:29:00.895Z,7.30
2023-01-13T07:31:27.486Z,7.30
2023-01-13T07:33:54.113Z,7.30
2023-01-13T07:36:24.060Z,7.30
2023-01-13T07:38:54.743Z,7.30
2023-01-13T07:41:42.422Z,7.20
2023-01-13T07:44:10.667Z,7.20
2023-01-13T07:46:38.598Z,7.30
2023-01-13T07:49:06.172Z,7.30
2023-01-13T07:51:38.239Z,7.30
2023-01-13T07:54:05.759Z,7.30
2023-01-13T07:56:32.914Z,7.30
2023-01-13T07:59:00.949Z,7.30
2023-01-13T08:01:28.207Z,7.30
2023-01-13T08:03:56.121Z,7.40
2023-01-13T08:06:22.760Z,7.40
2023-01-13T08:08:49.382Z,7.50
2023-01-13T08:11:18.277Z,7.60
2023-01-13T08:13:45.375Z,7.60
2023-01-13T08:16:15.077Z,7.70
2023-01-13T08:18:42.418Z,7.70
2023-01-13T08:21:13.157Z,7.60
2023-01-13T08:23:42.384Z,7.60
2023-01-13T08:26:12.644Z,7.60
2023-01-13T08:28:41.992Z,7.70
2023-01-13T08:31:13.537Z,7.60
2023-01-13T08:33:40.625Z,7.70
2023-01-13T08:36:12.094Z,7.70
2023-01-13T08:38:39.791Z,7.60
2023-01-13T08:41:12.286Z,7.60
2023-01-13T08:43:39.190Z,7.60
2023-01-13T08:46:06.463Z,7.60
2023-01-13T08:48:33.516Z,7.60
2023-01-13T08:51:06.479Z,7.60
2023-01-13T08:53:33.379Z,7.70
2023-01-13T08:56:00.008Z,7.70
2023-01-13T08:58:26.934Z,7.80
2023-01-13T09:00:53.651Z,7.80
2023-01-13T09:03:20.330Z,7.80
2023-01-13T09:05:46.986Z,7.90
2023-01-13T09:08:13.627Z,7.90
2023-01-13T09:10:40.636Z,7.80
2023-01-13T09:13:12.911Z,7.90
2023-01-13T09:15:46.451Z,7.90
2023-01-13T09:18:13.312Z,7.90
2023-01-13T09:20:40.285Z,7.90
2023-01-13T09:23:10.076Z,8.00
2023-01-13T09:25:37.559Z,8.00
2023-01-13T09:28:08.333Z,8.00
2023-01-13T09:30:36.719Z,8.10
2023-01-13T09:33:25.538Z,8.10
2023-01-13T09:35:52.163Z,8.20
2023-01-13T09:38:18.763Z,8.20
2023-01-13T09:40:48.953Z,8.20
2023-01-13T09:43:46.377Z,8.30
2023-01-13T09:46:40.883Z,8.30
2023-01-13T09:49:21.978Z,8.20
2023-01-13T09:51:57.769Z,8.10
2023-01-13T09:54:33.718Z,8.10
2023-01-13T09:57:00.879Z,8.20
2023-01-13T09:59:32.546Z,8.30
2023-01-13T10:02:43.171Z,8.40
2023-01-13T10:05:24.882Z,8.40
2023-01-13T10:07:57.270Z,8.20
2023-01-13T10:11:22.162Z,8.10
2023-01-13T10:13:56.657Z,8.10
2023-01-13T10:16:44.692Z,8.00
2023-01-13T10:19:29.193Z,8.00
2023-01-13T10:22:28.544Z,8.00
2023-01-13T10:25:57.778Z,8.00
2023-01-13T10:28:25.282Z,8.10
2023-01-13T10:30:52.701Z,8.10
2023-01-13T10:33:29.815Z,8.20
2023-01-13T10:36:14.423Z,8.40
2023-01-13T10:38:49.874Z,8.60
2023-01-13T10:41:18.051Z,8.70
2023-01-13T10:43:51.200Z,8.80
2023-01-13T10:46:19.890Z,8.80
2023-01-13T10:48:55.897Z,8.80
2023-01-13T10:51:29.386Z,8.70
2023-01-13T10:54:01.051Z,8.70
2023-01-13T10:56:32.285Z,8.60
2023-01-13T10:59:22.274Z,8.60
2023-01-13T11:02:01.273Z,8.50
2023-01-13T11:04:40.468Z,8.50
2023-01-13T11:07:40.787Z,8.60
2023-01-13T11:10:22.478Z,8.70
2023-01-13T11:13:23.306Z,8.80
2023-01-13T11:16:13.845Z,9.00
2023-01-13T11:19:13.874Z,9.20
2023-01-13T11:22:19.530Z,9.40
2023-01-13T11:24:56.835Z,9.30
2023-01-13T11:27:56.167Z,9.30
2023-01-13T11:30:43.047Z,9.10
2023-01-13T11:33:43.963Z,9.10
2023-01-13T11:36:36.483Z,9.10
2023-01-13T11:39:34.152Z,9.20
2023-01-13T11:42:21.792Z,9.20
2023-01-13T11:45:19.529Z,9.20
2023-01-13T11:47:49.529Z,9.20
2023-01-13T11:50:31.228Z,9.20
2023-01-13T11:53:10.347Z,9.30
2023-01-13T11:56:16.747Z,9.20
2023-01-13T11:59:13.796Z,9.20
2023-01-13T12:02:16.230Z,9.10
2023-01-13T12:05:23.575Z,9.20
2023-01-13T12:08:10.003Z,9.20
2023-01-13T12:11:19.008Z,9.30
2023-01-13T12:14:20.094Z,9.30
2023-01-13T12:16:49.510Z,9.30
2023-01-13T12:19:27.949Z,9.20
2023-01-13T12:22:10.571Z,9.20
2023-01-13T12:25:05.401Z,9.10
2023-01-13T12:28:00.705Z,9.10
2023-01-13T12:30:40.868Z,9.20
2023-01-13T12:33:54.731Z,9.30
2023-01-13T12:36:53.312Z,9.30
2023-01-13T12:39:58.281Z,9.30
2023-01-13T12:43:19.841Z,9.30
2023-01-13T12:45:47.018Z,9.20
2023-01-13T12:48:54.520Z,9.10
2023-01-13T12:51:44.421Z,9.00
2023-01-13T12:54:37.093Z,8.90
2023-01-13T12:57:27.387Z,8.90
2023-01-13T13:00:02.927Z,8.90
2023-01-13T13:02:36.205Z,8.90
2023-01-13T13:05:18.042Z,8.90
2023-01-13T13:08:04.183Z,8.80
2023-01-13T13:10:37.673Z,8.80
2023-01-13T13:13:20.288Z,8.70
2023-01-13T13:15:49.874Z,8.70
2023-01-13T13:18:27.359Z,8.70
2023-01-13T13:21:05.063Z,8.80
2023-01-13T13:23:45.728Z,9.00
2023-01-13T13:26:19.941Z,9.00
2023-01-13T13:29:28.257Z,9.00
2023-01-13T13:32:30.826Z,9.00
2023-01-13T13:35:43.220Z,9.00
2023-01-13T13:38:55.106Z,8.90
2023-01-13T13:41:43.583Z,8.80
2023-01-13T13:44:41.159Z,8.60
2023-01-13T13:47:10.138Z,8.60
2023-01-13T13:49:48.942Z,8.50
2023-01-13T13:52:29.567Z,8.30
2023-01-13T13:55:08.239Z,8.30
2023-01-13T13:57:40.068Z,8.20
2023-01-13T14:00:17.032Z,8.10
2023-01-13T14:02:54.397Z,8.10
2023-01-13T14:05:35.991Z,8.10
2023-01-13T14:08:06.873Z,8.00
2023-01-13T14:10:39.441Z,8.10
2023-01-13T14:13:22.360Z,8.10
2023-01-13T14:15:56.585Z,8.00
2023-01-13T14:18:23.690Z,8.00
2023-01-13T14:21:19.381Z,8.00
2023-01-13T14:24:00.252Z,7.90
2023-01-13T14:26:31.391Z,7.90
2023-01-13T14:29:01.447Z,7.90
2023-01-13T14:31:28.785Z,7.80
2023-01-13T14:33:59.330Z,7.80
2023-01-13T14:36:39.223Z,7.80
2023-01-13T14:39:05.829Z,7.80
2023-01-13T14:41:37.380Z,7.80
2023-01-13T14:44:25.192Z,7.80
2023-01-13T14:46:54.914Z,7.70
2023-01-13T14:49:39.341Z,7.70
2023-01-13T14:52:14.655Z,7.70
2023-01-13T14:54:41.211Z,7.70
2023-01-13T14:57:27.656Z,7.60
2023-01-13T15:00:16.068Z,7.60
2023-01-13T15:02:58.061Z,7.50
2023-01-13T15:05:27.786Z,7.50
2023-01-13T15:08:26.262Z,7.50
2023-01-13T15:11:00.784Z,7.50
2023-01-13T15:13:48.667Z,7.50
2023-01-13T15:16:24.851Z,7.50
2023-01-13T15:18:52.539Z,7.60
2023-01-13T15:21:19.484Z,7.60
2023-01-13T15:23:47.270Z,7.80
2023-01-13T15:26:24.040Z,7.80
2023-01-13T15:28:52.257Z,7.80
2023-01-13T15:31:19.973Z,7.80
2023-01-13T15:33:46.668Z,7.80
2023-01-13T15:36:26.102Z,7.80
2023-01-13T15:38:53.720Z,7.80
2023-01-13T15:41:39.303Z,7.70
2023-01-13T15:44:24.796Z,7.70
2023-01-13T15:46:52.166Z,7.70
2023-01-13T15:49:38.133Z,7.60
2023-01-13T15:52:21.641Z,7.50
2023-01-13T15:54:49.431Z,7.50
2023-01-13T15:57:27.297Z,7.60
2023-01-13T15:59:58.432Z,7.60
2023-01-13T16:02:25.243Z,7.50
2023-01-13T16:04:53.866Z,7.50
2023-01-13T16:07:22.879Z,7.50
2023-01-13T16:09:49.605Z,7.40
2023-01-13T16:12:16.443Z,7.50
2023-01-13T16:14:43.947Z,7.40
2023-01-13T16:17:22.409Z,7.40
2023-01-13T16:19:49.978Z,7.40
2023-01-13T16:22:17.852Z,7.30
2023-01-13T16:24:44.478Z,7.40
2023-01-13T16:27:19.113Z,7.30
2023-01-13T16:29:47.429Z,7.30
2023-01-13T16:32:14.536Z,7.30
2023-01-13T16:34:41.541Z,7.30
2023-01-13T16:37:26.307Z,7.40
2023-01-13T16:39:54.104Z,7.30
2023-01-13T16:42:21.547Z,7.30
2023-01-13T16:44:49.723Z,7.40
2023-01-13T16:47:18.177Z,7.30
2023-01-13T16:49:45.867Z,7.30
2023-01-13T16:52:12.625Z,7.30
2023-01-13T16:54:39.357Z,7.30
2023-01-13T16:57:07.551Z,7.30
2023-01-13T16:59:34.155Z,7.20
2023-01-13T17:02:02.047Z,7.20
2023-01-13T17:04:29.084Z,7.20
2023-01-13T17:07:00.626Z,7.20
2023-01-13T17:09:29.310Z,7.10
2023-01-13T17:11:57.210Z,7.10
2023-01-13T17:14:24.419Z,7.10
2023-01-13T17:16:54.879Z,7.10
2023-01-13T17:19:25.479Z,7.10
2023-01-13T17:21:52.297Z,7.10
2023-01-13T17:24:20.271Z,7.10
2023-01-13T17:26:50.085Z,7.00
2023-01-13T17:29:23.364Z,7.00
2023-01-13T17:31:51.735Z,7.00
2023-01-13T17:34:19.284Z,7.00
2023-01-13T17:36:45.868Z,7.00
2023-01-13T17:39:18.622Z,7.00
2023-01-13T17:41:47.268Z,7.00
2023-01-13T17:44:19.035Z,7.00
2023-01-13T17:46:48.794Z,7.00
2023-01-13T17:49:18.799Z,7.00
2023-01-13T17:51:50.865Z,7.00
2023-01-13T17:54:18.270Z,7.00
2023-01-13T17:56:44.863Z,6.90
2023-01-13T17:59:12.967Z,6.90
2023-01-13T18:01:40.100Z,6.90
2023-01-13T18:04:07.180Z,7.00
2023-01-13T18:06:33.777Z,6.90
2023-01-13T18:09:01.313Z,7.00
2023-01-13T18:11:28.025Z,6.90
2023-01-13T18:14:00.081Z,6.90
2023-01-13T18:16:30.349Z,7.00
2023-01-13T18:19:18.400Z,7.00
2023-01-13T18:22:05.492Z,7.00
2023-01-13T18:24:50.797Z,6.90
2023-01-13T18:27:22.675Z,6.90
2023-01-13T18:29:54.414Z,6.90
2023-01-13T18:32:23.352Z,6.90
2023-01-13T18:34:53.956Z,6.90
2023-01-13T18:37:25.590Z,6.90
2023-01-13T18:39:52.313Z,7.00
2023-01-13T18:42:37.366Z,7.00
2023-01-13T18:45:04.456Z,7.00
2023-01-13T18:47:33.446Z,6.90
2023-01-13T18:50:00.436Z,6.90
2023-01-13T18:52:28.363Z,6.90
2023-01-13T18:54:55.003Z,6.90
2023-01-13T18:57:22.184Z,6.90
2023-01-13T18:59:48.790Z,6.90
2023-01-13T19:02:19.470Z,6.90
2023-01-13T19:04:46.934Z,6.90
2023-01-13T19:07:22.115Z,6.90
2023-01-13T19:09:49.918Z,6.90
2023-01-13T19:12:25.740Z,6.80
2023-01-13T19:14:58.174Z,6.80
2023-01-13T19:17:27.094Z,6.80
2023-01-13T19:19:57.128Z,6.80
2023-01-13T19:22:33.421Z,6.70
2023-01-13T19:25:01.692Z,6.70
2023-01-13T19:27:28.927Z,6.70
2023-01-13T19:30:00.036Z,6.70
2023-01-13T19:32:27.881Z,6.70
2023-01-13T19:34:56.125Z,6.70
2023-01-13T19:37:22.698Z,6.70
2023-01-13T19:39:49.373Z,6.70
2023-01-13T19:42:37.169Z,6.70
2023-01-13T19:45:22.562Z,6.70
2023-01-13T19:47:49.181Z,6.70
2023-01-13T19:50:15.969Z,6.80
2023-01-13T19:52:42.689Z,6.70
2023-01-13T19:55:12.152Z,6.80
2023-01-13T19:57:40.046Z,6.80
2023-01-13T20:00:09.160Z,6.80
2023-01-13T20:02:36.797Z,6.80
2023-01-13T20:05:05.715Z,6.90
2023-01-13T20:07:33.758Z,7.00
2023-01-13T20:10:01.461Z,6.90
2023-01-13T20:12:29.059Z,6.90
2023-01-13T20:14:56.151Z,6.80
2023-01-13T20:17:25.697Z,6.80
2023-01-13T20:19:52.822Z,6.80
2023-01-13T20:22:19.499Z,6.70
2023-01-13T20:24:46.128Z,6.70
2023-01-13T20:27:12.850Z,6.70
2023-01-13T20:29:39.548Z,6.70
2023-01-13T20:32:08.816Z,6.70
2023-01-13T20:34:36.394Z,6.70
2023-01-13T20:37:03.083Z,6.70
2023-01-13T20:39:29.739Z,6.70
2023-01-13T20:42:15.451Z,6.80
2023-01-13T20:44:43.940Z,6.80
2023-01-13T20:47:10.734Z,6.80
2023-01-13T20:49:37.474Z,6.90
2023-01-13T20:52:09.301Z,6.90
2023-01-13T20:54:37.387Z,7.00
2023-01-13T20:57:05.451Z,7.00
2023-01-13T20:59:32.323Z,7.00
2023-01-13T21:02:01.533Z,6.90
2023-01-13T21:04:28.736Z,6.90
2023-01-13T21:06:56.161Z,6.90
2023-01-13T21:09:23.733Z,6.90
2023-01-13T21:12:09.504Z,6.90
2023-01-13T21:14:54.879Z,6.90
2023-01-13T21:17:42.967Z,6.90
2023-01-13T21:20:12.531Z,6.90
2023-01-13T21:22:40.554Z,6.80
2023-01-13T21:25:07.779Z,6.80
2023-01-13T21:27:34.602Z,6.70
2023-01-13T21:30:01.382Z,6.70
2023-01-13T21:32:28.034Z,6.70
2023-01-13T21:34:58.873Z,6.60
2023-01-13T21:37:25.796Z,6.60
2023-01-13T21:39:52.418Z,6.60
2023-01-13T21:42:37.824Z,6.60
2023-01-13T21:45:23.915Z,6.50
2023-01-13T21:47:50.742Z,6.40
2023-01-13T21:50:24.477Z,6.30
2023-01-13T21:52:54.913Z,6.30
2023-01-13T21:55:25.296Z,6.20
2023-01-13T21:57:57.494Z,6.20
2023-01-13T22:00:29.040Z,6.20
2023-01-13T22:02:56.166Z,6.20
2023-01-13T22:05:24.595Z,6.10
2023-01-13T22:07:52.006Z,6.10
2023-01-13T22:10:22.151Z,6.10
2023-01-13T22:12:55.620Z,6.00
2023-01-13T22:15:26.639Z,5.90
2023-01-13T22:17:55.101Z,5.90
2023-01-13T22:20:22.153Z,5.90
2023-01-13T22:22:49.037Z,5.90
2023-01-13T22:25:17.322Z,5.90
2023-01-13T22:27:44.840Z,6.00
2023-01-13T22:30:21.687Z,6.10
2023-01-13T22:32:48.590Z,6.10
2023-01-13T22:35:18.010Z,6.20
2023-01-13T22:37:44.624Z,6.20
2023-01-13T22:40:12.275Z,6.20
2023-01-13T22:42:40.875Z,6.30
2023-01-13T22:45:11.596Z,6.30
2023-01-13T22:47:38.566Z,6.30
2023-01-13T22:50:07.242Z,6.40
2023-01-13T22:52:35.073Z,6.40
2023-01-13T22:55:01.812Z,6.40
2023-01-13T22:57:46.676Z,6.40
2023-01-13T23:00:15.375Z,6.40
2023-01-13T23:02:42.073Z,6.50
2023-01-13T23:05:10.053Z,6.50
2023-01-13T23:07:36.606Z,6.40
2023-01-13T23:10:04.468Z,6.40
2023-01-13T23:12:31.087Z,6.40
2023-01-13T23:14:57.685Z,6.40
2023-01-13T23:17:24.288Z,6.40
2023-01-13T23:19:50.925Z,6.40
2023-01-13T23:22:17.514Z,6.30
2023-01-13T23:24:44.122Z,6.40
2023-01-13T23:27:12.364Z,6.40
2023-01-13T23:29:41.401Z,6.50
2023-01-13T23:32:08.058Z,6.50
2023-01-13T23:34:36.271Z,6.60
2023-01-13T23:37:03.012Z,6.60
2023-01-13T23:39:29.562Z,6.70
2023-01-13T23:41:56.261Z,6.70
2023-01-13T23:44:23.182Z,6.70
2023-01-13T23:46:49.854Z,6.60
2023-01-13T23:49:16.504Z,6.70
2023-01-13T23:51:43.091Z,6.70
2023-01-13T23:54:11.982Z,6.70
2023-01-13T23:56:39.552Z,6.70
2023-01-13T23:59:06.694Z,6.70
